createdAt,value
2023-12-12T00:00:31.170Z,20.63
2023-12-12T00:02:58.520Z,15.05
2023-12-12T00:05:25.340Z,20.23
2023-12-12T00:07:52.321Z,17.58
2023-12-12T00:10:19.069Z,17.67
2023-12-12T00:12:45.733Z,23.75
2023-12-12T00:15:12.420Z,18.48
2023-12-12T00:17:42.748Z,19.65
2023-12-12T00:20:12.688Z,21.98
2023-12-12T00:22:39.430Z,18.90
2023-12-12T00:25:06.264Z,21.42
2023-12-12T00:27:33.612Z,20.80
2023-12-12T00:30:00.527Z,19.73
2023-12-12T00:32:27.237Z,20.88
2023-12-12T00:34:53.968Z,18.67
2023-12-12T00:37:20.556Z,23.10
2023-12-12T00:39:47.138Z,23.63
2023-12-12T00:42:13.801Z,26.08
2023-12-12T00:44:40.812Z,23.02
2023-12-12T00:47:07.521Z,22.17
2023-12-12T00:49:34.321Z,33.42
2023-12-12T00:52:03.038Z,17.13
2023-12-12T00:54:29.690Z,16.90
2023-12-12T00:56:56.304Z,22.52
2023-12-12T00:59:22.923Z,21.90
2023-12-12T01:01:49.620Z,20.02
2023-12-12T01:04:16.599Z,24.00
2023-12-12T01:06:43.353Z,18.55
2023-12-12T01:09:09.950Z,21.95
2023-12-12T01:11:36.538Z,23.48
2023-12-12T01:14:03.176Z,17.50
2023-12-12T01:16:30.842Z,22.65
2023-12-12T01:18:57.941Z,18.60
2023-12-12T01:21:24.729Z,22.15
2023-12-12T01:23:54.994Z,18.50
2023-12-12T01:26:23.526Z,19.08
2023-12-12T01:28:51.004Z,28.00
2023-12-12T01:31:18.466Z,18.58
2023-12-12T01:33:45.220Z,24.73
2023-12-12T01:36:12.026Z,22.88
2023-12-12T01:38:38.584Z,23.17
2023-12-12T01:41:05.634Z,26.52
2023-12-12T01:43:33.761Z,19.13
2023-12-12T01:46:07.214Z,15.80
2023-12-12T01:48:34.876Z,19.67
2023-12-12T01:51:02.863Z,20.95
2023-12-12T01:53:36.837Z,21.35
2023-12-12T01:56:05.949Z,20.85
2023-12-12T01:58:34.796Z,21.92
2023-12-12T02:01:01.804Z,17.65
2023-12-12T02:03:31.160Z,19.40
2023-12-12T02:05:59.551Z,21.13
2023-12-12T02:08:26.748Z,18.20
2023-12-12T02:10:54.374Z,19.58
2023-12-12T02:13:21.936Z,24.30
2023-12-12T02:15:48.946Z,21.48
2023-12-12T02:18:15.735Z,26.05
2023-12-12T02:20:43.218Z,25.98
2023-12-12T02:23:10.943Z,23.00
2023-12-12T02:25:38.742Z,20.88
2023-12-12T02:28:08.786Z,25.02
2023-12-12T02:30:36.360Z,22.52
2023-12-12T02:33:04.710Z,17.90
2023-12-12T02:35:32.267Z,20.58
2023-12-12T02:37:59.051Z,22.83
2023-12-12T02:40:25.858Z,27.73
2023-12-12T02:42:52.915Z,23.63
2023-12-12T02:45:19.924Z,24.40
2023-12-12T02:47:46.613Z,30.33
2023-12-12T02:50:13.612Z,22.00
2023-12-12T02:52:40.689Z,25.40
2023-12-12T02:55:07.777Z,19.38
2023-12-12T02:57:34.957Z,24.25
2023-12-12T03:00:02.193Z,23.63
2023-12-12T03:02:28.966Z,23.60
2023-12-12T03:04:55.652Z,24.27
2023-12-12T03:07:22.366Z,26.50
2023-12-12T03:09:50.682Z,30.38
2023-12-12T03:12:17.759Z,31.42
2023-12-12T03:14:44.539Z,27.58
2023-12-12T03:17:11.180Z,31.33
2023-12-12T03:19:37.953Z,26.38
2023-12-12T03:22:05.096Z,35.42
2023-12-12T03:24:31.793Z,24.98
2023-12-12T03:26:59.329Z,23.48
2023-12-12T03:29:26.086Z,25.67
2023-12-12T03:31:52.853Z,25.75
2023-12-12T03:34:19.859Z,21.35
2023-12-12T03:36:48.049Z,24.80
2023-12-12T03:39:15.979Z,24.05
2023-12-12T03:41:44.559Z,19.33
2023-12-12T03:44:11.228Z,21.42
2023-12-12T03:46:37.883Z,23.45
2023-12-12T03:49:06.089Z,19.55
2023-12-12T03:51:32.986Z,23.45
2023-12-12T03:53:59.984Z,24.30
2023-12-12T03:56:26.621Z,22.73
2023-12-12T03:58:53.252Z,32.85
2023-12-12T04:01:20.822Z,23.88
2023-12-12T04:03:47.625Z,24.27
2023-12-12T04:06:14.403Z,22.02
2023-12-12T04:08:41.079Z,21.02
2023-12-12T04:11:07.937Z,21.67
2023-12-12T04:13:34.553Z,17.33
2023-12-12T04:16:01.302Z,19.92
2023-12-12T04:18:28.142Z,24.92
2023-12-12T04:20:54.815Z,23.30
2023-12-12T04:23:21.441Z,16.30
2023-12-12T04:25:48.170Z,19.92
2023-12-12T04:28:14.833Z,21.52
2023-12-12T04:30:41.885Z,20.58
2023-12-12T04:33:08.845Z,28.60
2023-12-12T04:35:36.556Z,25.60
2023-12-12T04:38:03.176Z,27.80
2023-12-12T04:40:30.971Z,29.08
2023-12-12T04:45:16.593Z,34.47
2023-12-12T04:50:13.868Z,34.95
2023-12-12T04:52:40.568Z,33.60
2023-12-12T04:55:07.831Z,43.85
2023-12-12T04:57:34.753Z,37.15
2023-12-12T05:00:01.622Z,37.25
2023-12-12T05:02:28.276Z,36.78
2023-12-12T05:04:54.871Z,43.55
2023-12-12T05:07:21.545Z,52.05
2023-12-12T05:09:48.222Z,42.25
2023-12-12T05:12:14.985Z,43.85
2023-12-12T05:14:41.729Z,46.42
2023-12-12T05:17:11.253Z,37.60
2023-12-12T05:19:38.453Z,42.08
2023-12-12T05:22:05.564Z,44.72
2023-12-12T05:24:32.364Z,41.22
2023-12-12T05:26:59.039Z,41.75
2023-12-12T05:29:25.946Z,38.28
2023-12-12T05:31:52.764Z,35.65
2023-12-12T05:34:20.102Z,39.88
2023-12-12T05:36:46.819Z,41.97
2023-12-12T05:39:13.441Z,45.13
2023-12-12T05:41:40.231Z,38.85
2023-12-12T05:44:09.532Z,33.33
2023-12-12T05:46:38.485Z,45.10
2023-12-12T05:49:05.823Z,35.08
2023-12-12T05:51:35.411Z,41.45
2023-12-12T05:54:02.064Z,40.42
2023-12-12T05:56:28.712Z,36.10
2023-12-12T05:58:55.285Z,35.28
2023-12-12T06:01:24.143Z,30.60
2023-12-12T06:03:50.931Z,45.33
2023-12-12T06:06:17.766Z,39.97
2023-12-12T06:08:44.353Z,32.47
2023-12-12T06:11:11.000Z,34.22
2023-12-12T06:13:37.681Z,33.30
2023-12-12T06:16:04.679Z,29.65
2023-12-12T06:18:31.358Z,35.80
2023-12-12T06:20:58.045Z,29.23
2023-12-12T06:23:24.650Z,31.48
2023-12-12T06:25:53.767Z,45.53
2023-12-12T06:30:47.499Z,27.92
2023-12-12T06:33:14.345Z,35.13
2023-12-12T06:35:41.206Z,40.08
2023-12-12T06:38:07.834Z,41.00
2023-12-12T06:40:34.653Z,41.60
2023-12-12T06:43:01.398Z,52.90
2023-12-12T06:45:28.796Z,42.45
2023-12-12T06:47:55.434Z,37.40
2023-12-12T06:50:22.049Z,35.03
2023-12-12T06:52:48.707Z,28.42
2023-12-12T06:55:16.825Z,30.23
2023-12-12T06:57:43.350Z,25.67
2023-12-12T07:00:10.424Z,28.35
2023-12-12T07:02:37.849Z,31.27
2023-12-12T07:05:05.707Z,23.38
2023-12-12T07:07:34.021Z,29.15
2023-12-12T07:10:01.112Z,29.02
2023-12-12T07:12:27.848Z,24.00
2023-12-12T07:14:54.539Z,29.60
2023-12-12T07:17:21.553Z,23.83
2023-12-12T07:19:48.263Z,25.05
2023-12-12T07:22:15.019Z,21.23
2023-12-12T07:24:41.946Z,27.48
2023-12-12T07:27:08.756Z,31.85
2023-12-12T07:29:35.989Z,32.13
2023-12-12T07:32:02.604Z,34.00
2023-12-12T07:34:29.422Z,32.58
2023-12-12T07:36:56.181Z,26.67
2023-12-12T07:39:22.793Z,23.83
2023-12-12T07:41:49.453Z,24.42
2023-12-12T07:44:16.099Z,22.88
2023-12-12T07:46:42.788Z,33.28
2023-12-12T07:49:10.282Z,25.02
2023-12-12T07:51:37.194Z,28.27
2023-12-12T07:54:04.837Z,29.08
2023-12-12T07:56:31.775Z,23.80
2023-12-12T07:58:58.750Z,23.20
2023-12-12T08:01:25.488Z,20.20
2023-12-12T08:03:52.767Z,18.65
2023-12-12T08:06:21.591Z,19.38
2023-12-12T08:08:49.068Z,16.08
2023-12-12T08:11:16.455Z,19.77
2023-12-12T08:13:43.615Z,24.83
2023-12-12T08:16:10.388Z,20.48
2023-12-12T08:18:38.614Z,23.48
2023-12-12T08:21:07.480Z,29.48
2023-12-12T08:23:35.302Z,21.63
2023-12-12T08:26:02.059Z,24.20
2023-12-12T08:28:29.105Z,27.00
2023-12-12T08:30:56.164Z,23.33
2023-12-12T08:33:23.528Z,27.92
2023-12-12T08:35:50.461Z,25.55
2023-12-12T08:38:17.074Z,25.42
2023-12-12T08:40:44.791Z,28.17
2023-12-12T08:43:11.571Z,29.15
2023-12-12T08:45:38.277Z,29.77
2023-12-12T08:48:05.225Z,33.60
2023-12-12T08:50:31.881Z,24.85
2023-12-12T08:52:59.521Z,31.85
2023-12-12T08:55:26.190Z,29.40
2023-12-12T08:57:52.972Z,28.55
2023-12-12T09:00:19.797Z,33.35
2023-12-12T09:02:46.616Z,38.80
2023-12-12T09:05:14.331Z,34.40
2023-12-12T09:07:42.031Z,21.33
2023-12-12T09:10:11.511Z,28.02
2023-12-12T09:12:38.389Z,31.30
2023-12-12T09:15:06.900Z,37.10
2023-12-12T09:17:34.072Z,36.22
2023-12-12T09:20:02.291Z,29.48
2023-12-12T09:22:29.209Z,33.50
2023-12-12T09:24:55.942Z,36.60
2023-12-12T09:27:22.592Z,32.00
2023-12-12T09:29:49.277Z,41.25
2023-12-12T09:32:16.133Z,40.40
2023-12-12T09:34:43.239Z,38.38
2023-12-12T09:37:09.960Z,36.47
2023-12-12T09:39:36.563Z,37.85
2023-12-12T09:42:14.458Z,36.60
2023-12-12T09:44:44.892Z,42.03
2023-12-12T09:47:11.861Z,38.13
2023-12-12T09:49:39.887Z,40.22
2023-12-12T09:52:08.147Z,32.47
2023-12-12T09:54:37.619Z,32.47
2023-12-12T09:57:05.419Z,33.38
2023-12-12T09:59:32.041Z,27.08
2023-12-12T10:02:06.688Z,37.25
2023-12-12T10:04:41.496Z,43.47
2023-12-12T10:07:10.049Z,41.35
2023-12-12T10:09:38.524Z,30.98
2023-12-12T10:12:05.623Z,39.75
2023-12-12T10:14:45.105Z,31.48
2023-12-12T10:17:13.037Z,42.17
2023-12-12T10:19:39.936Z,50.58
2023-12-12T10:22:10.515Z,41.03
2023-12-12T10:24:38.381Z,41.05
2023-12-12T10:27:05.715Z,43.60
2023-12-12T10:29:32.632Z,53.35
2023-12-12T10:32:00.559Z,54.35
2023-12-12T10:34:30.321Z,48.03
2023-12-12T10:36:59.682Z,50.78
2023-12-12T10:39:30.192Z,48.63
2023-12-12T10:41:57.395Z,43.78
2023-12-12T10:44:34.370Z,40.38
2023-12-12T10:47:03.380Z,43.00
2023-12-12T10:49:35.055Z,42.45
2023-12-12T10:52:10.425Z,41.33
2023-12-12T10:54:40.989Z,37.22
2023-12-12T10:57:09.173Z,49.13
2023-12-12T10:59:58.396Z,48.00
2023-12-12T11:02:24.846Z,40.38
2023-12-12T11:04:52.232Z,35.45
2023-12-12T11:07:19.631Z,38.65
2023-12-12T11:09:46.331Z,51.70
2023-12-12T11:12:13.957Z,50.47
2023-12-12T11:14:41.183Z,50.08
2023-12-12T11:17:12.285Z,60.97
2023-12-12T11:19:41.005Z,60.25
2023-12-12T11:22:07.724Z,47.90
2023-12-12T11:25:04.567Z,52.45
2023-12-12T11:27:32.462Z,51.20
2023-12-12T11:30:00.520Z,41.15
2023-12-12T11:32:27.841Z,33.40
2023-12-12T11:34:54.988Z,31.17
2023-12-12T11:37:39.980Z,34.72
2023-12-12T11:40:07.098Z,41.00
2023-12-12T11:42:34.063Z,30.58
2023-12-12T11:45:00.898Z,28.17
2023-12-12T11:47:31.599Z,23.80
2023-12-12T11:50:14.535Z,29.13
2023-12-12T11:52:41.300Z,22.40
2023-12-12T11:55:11.761Z,25.98
2023-12-12T11:57:38.447Z,37.20
2023-12-12T12:00:05.927Z,30.42
2023-12-12T12:02:32.824Z,17.13
2023-12-12T12:05:00.068Z,18.48
2023-12-12T12:07:27.342Z,21.95
2023-12-12T12:09:54.944Z,25.42
2023-12-12T12:12:21.797Z,31.30
2023-12-12T12:14:48.417Z,22.35
2023-12-12T12:17:15.075Z,23.38
2023-12-12T12:19:44.671Z,23.98
2023-12-12T12:22:13.812Z,25.77
2023-12-12T12:24:45.824Z,18.10
2023-12-12T12:27:13.612Z,19.73
2023-12-12T12:29:40.683Z,20.80
2023-12-12T12:32:14.866Z,19.70
2023-12-12T12:34:41.908Z,21.48
2023-12-12T12:37:08.861Z,26.45
2023-12-12T12:39:45.204Z,23.42
2023-12-12T12:42:12.069Z,21.08
2023-12-12T12:44:38.958Z,21.58
2023-12-12T12:47:05.634Z,30.58
2023-12-12T12:49:32.389Z,31.73
2023-12-12T12:51:59.248Z,21.42
2023-12-12T12:54:26.051Z,28.45
2023-12-12T12:56:52.694Z,17.38
2023-12-12T12:59:19.886Z,28.95
2023-12-12T13:01:46.892Z,21.33
2023-12-12T13:04:13.979Z,22.65
2023-12-12T13:06:41.513Z,24.42
2023-12-12T13:09:11.176Z,26.38
2023-12-12T13:11:40.903Z,30.13
2023-12-12T13:16:34.324Z,23.15
2023-12-12T13:19:01.249Z,26.77
2023-12-12T13:21:28.468Z,28.60
2023-12-12T13:23:55.613Z,26.25
2023-12-12T13:26:23.472Z,19.73
2023-12-12T13:28:52.717Z,19.48
2023-12-12T13:31:23.313Z,20.58
2023-12-12T13:33:54.563Z,22.33
2023-12-12T13:36:22.817Z,27.05
2023-12-12T13:38:50.680Z,23.25
2023-12-12T13:41:17.840Z,28.92
2023-12-12T13:43:44.995Z,22.45
2023-12-12T13:46:12.792Z,19.40
2023-12-12T13:48:39.506Z,22.73
2023-12-12T13:51:08.635Z,29.20
2023-12-12T13:53:37.266Z,20.60
2023-12-12T13:56:04.609Z,25.25
2023-12-12T13:58:31.309Z,21.70
2023-12-12T14:00:57.996Z,26.33
2023-12-12T14:03:25.121Z,31.08
2023-12-12T14:05:52.164Z,27.23
2023-12-12T14:08:19.081Z,32.17
2023-12-12T14:10:45.771Z,40.80
2023-12-12T14:13:12.472Z,48.20
2023-12-12T14:15:39.139Z,38.15
2023-12-12T14:18:06.114Z,37.35
2023-12-12T14:20:32.732Z,38.95
2023-12-12T14:23:07.424Z,36.92
2023-12-12T14:25:38.035Z,32.78
2023-12-12T14:28:04.816Z,39.78
2023-12-12T14:30:32.300Z,32.25
2023-12-12T14:33:00.098Z,28.67
2023-12-12T14:35:27.920Z,22.65
2023-12-12T14:37:54.684Z,23.15
2023-12-12T14:40:21.388Z,22.80
2023-12-12T14:42:50.014Z,16.45
2023-12-12T14:45:17.699Z,19.23
2023-12-12T14:47:44.867Z,18.67
2023-12-12T14:50:12.141Z,16.35
2023-12-12T14:52:38.930Z,12.77
2023-12-12T14:55:06.083Z,14.68
2023-12-12T14:57:32.663Z,14.82
2023-12-12T15:00:02.130Z,15.80
2023-12-12T15:02:33.615Z,14.43
2023-12-12T15:05:00.342Z,14.18
2023-12-12T15:07:26.949Z,13.02
2023-12-12T15:09:53.703Z,15.88
2023-12-12T15:12:20.295Z,20.60
2023-12-12T15:14:47.004Z,20.42
2023-12-12T15:17:13.626Z,17.05
2023-12-12T15:19:42.271Z,16.48
2023-12-12T15:22:08.904Z,15.50
2023-12-12T15:24:35.587Z,16.13
2023-12-12T15:27:03.414Z,17.35
2023-12-12T15:29:30.652Z,16.27
2023-12-12T15:31:57.621Z,15.82
2023-12-12T15:34:24.411Z,15.13
2023-12-12T15:36:51.219Z,23.48
2023-12-12T15:39:18.105Z,20.65
2023-12-12T15:41:44.980Z,14.70
2023-12-12T15:44:11.629Z,21.70
2023-12-12T15:46:38.396Z,18.33
2023-12-12T15:49:05.210Z,20.52
2023-12-12T15:51:32.518Z,15.95
2023-12-12T15:53:59.283Z,16.63
2023-12-12T15:56:26.416Z,18.85
2023-12-12T15:58:55.943Z,18.10
2023-12-12T16:03:54.869Z,16.50
2023-12-12T16:06:22.800Z,18.13
2023-12-12T16:08:51.157Z,13.05
2023-12-12T16:11:18.595Z,28.52
2023-12-12T16:13:46.659Z,16.65
2023-12-12T16:16:16.221Z,14.02
2023-12-12T16:21:10.734Z,20.73
2023-12-12T16:23:37.354Z,18.52
2023-12-12T16:26:04.236Z,23.58
2023-12-12T16:28:30.867Z,22.52
2023-12-12T16:30:57.807Z,24.42
2023-12-12T16:33:24.544Z,14.48
2023-12-12T16:35:51.651Z,22.73
2023-12-12T16:38:20.036Z,22.10
2023-12-12T16:40:49.673Z,21.02
2023-12-12T16:43:16.981Z,14.93
2023-12-12T16:45:44.302Z,17.48
2023-12-12T16:48:11.354Z,17.30
2023-12-12T16:50:39.365Z,21.02
2023-12-12T16:53:06.180Z,20.50
2023-12-12T16:55:32.845Z,16.92
2023-12-12T16:57:59.621Z,16.05
2023-12-12T17:00:27.732Z,20.90
2023-12-12T17:02:56.013Z,15.73
2023-12-12T17:05:22.736Z,17.88
2023-12-12T17:07:50.581Z,17.85
2023-12-12T17:10:17.504Z,20.67
2023-12-12T17:12:44.634Z,14.07
2023-12-12T17:15:11.400Z,16.45
2023-12-12T17:17:37.974Z,15.73
2023-12-12T17:20:05.172Z,19.27
2023-12-12T17:22:31.890Z,22.50
2023-12-12T17:24:58.641Z,21.75
2023-12-12T17:27:25.411Z,22.23
2023-12-12T17:29:52.068Z,17.33
2023-12-12T17:32:18.851Z,18.20
2023-12-12T17:34:46.880Z,18.73
2023-12-12T17:37:13.899Z,23.95
2023-12-12T17:39:40.603Z,19.27
2023-12-12T17:42:09.300Z,25.08
2023-12-12T17:44:36.322Z,19.70
2023-12-12T17:47:03.272Z,22.15
2023-12-12T17:49:29.929Z,28.40
2023-12-12T17:51:56.702Z,30.90
2023-12-12T17:54:23.471Z,27.88
2023-12-12T17:56:50.597Z,19.13
2023-12-12T17:59:17.262Z,21.92
2023-12-12T18:01:44.104Z,22.30
2023-12-12T18:04:10.801Z,27.38
2023-12-12T18:06:37.600Z,21.42
2023-12-12T18:09:09.174Z,19.42
2023-12-12T18:11:35.890Z,26.00
2023-12-12T18:14:03.811Z,21.65
2023-12-12T18:16:30.632Z,27.40
2023-12-12T18:18:57.466Z,27.45
2023-12-12T18:21:24.024Z,19.75
2023-12-12T18:23:50.801Z,24.10
2023-12-12T18:26:17.563Z,21.58
2023-12-12T18:28:47.461Z,20.00
2023-12-12T18:31:15.219Z,25.83
2023-12-12T18:33:42.375Z,23.30
2023-12-12T18:36:10.857Z,22.15
2023-12-12T18:38:37.588Z,26.15
2023-12-12T18:41:07.156Z,26.08
2023-12-12T18:46:00.428Z,24.13
2023-12-12T18:48:27.127Z,23.38
2023-12-12T18:50:53.773Z,29.17
2023-12-12T18:53:20.352Z,20.65
2023-12-12T18:55:47.062Z,26.20
2023-12-12T18:58:13.801Z,24.67
2023-12-12T19:00:40.651Z,30.92
2023-12-12T19:03:07.605Z,34.15
2023-12-12T19:05:34.351Z,22.40
2023-12-12T19:08:02.932Z,25.63
2023-12-12T19:10:30.979Z,22.90
2023-12-12T19:12:57.758Z,25.58
2023-12-12T19:15:24.446Z,26.17
2023-12-12T19:17:54.320Z,19.63
2023-12-12T19:20:23.752Z,25.33
2023-12-12T19:22:52.546Z,23.80
2023-12-12T19:25:19.312Z,20.95
2023-12-12T19:27:46.431Z,19.75
2023-12-12T19:30:14.146Z,25.70
2023-12-12T19:32:41.898Z,28.48
2023-12-12T19:35:09.623Z,26.67
2023-12-12T19:37:40.396Z,22.63
2023-12-12T19:40:09.090Z,25.58
2023-12-12T19:42:36.324Z,22.05
2023-12-12T19:45:04.066Z,26.52
2023-12-12T19:47:31.384Z,24.60
2023-12-12T19:50:00.408Z,28.52
2023-12-12T19:52:29.083Z,22.58
2023-12-12T19:54:55.780Z,25.42
2023-12-12T19:57:22.655Z,29.15
2023-12-12T19:59:49.419Z,28.05
2023-12-12T20:02:17.158Z,30.80
2023-12-12T20:04:44.068Z,26.13
2023-12-12T20:07:11.972Z,25.33
2023-12-12T20:09:42.410Z,28.95
2023-12-12T20:12:10.373Z,29.10
2023-12-12T20:14:37.869Z,26.52
2023-12-12T20:17:05.540Z,25.73
2023-12-12T20:19:32.332Z,28.63
2023-12-12T20:21:59.596Z,22.48
2023-12-12T20:24:26.708Z,26.88
2023-12-12T20:26:53.396Z,25.25
2023-12-12T20:29:20.081Z,28.42
2023-12-12T20:31:46.783Z,24.40
2023-12-12T20:34:13.944Z,24.90
2023-12-12T20:36:41.137Z,25.92
2023-12-12T20:39:08.497Z,28.02
2023-12-12T20:41:36.641Z,28.02
2023-12-12T20:44:03.651Z,24.45
2023-12-12T20:46:30.374Z,27.40
2023-12-12T20:48:57.713Z,30.20
2023-12-12T20:51:24.509Z,26.27
2023-12-12T20:53:51.096Z,27.08
2023-12-12T20:56:17.825Z,26.30
2023-12-12T20:58:44.616Z,25.60
2023-12-12T21:01:11.418Z,28.27
2023-12-12T21:03:38.246Z,23.02
2023-12-12T21:06:05.321Z,22.08
2023-12-12T21:08:32.057Z,22.45
2023-12-12T21:10:59.138Z,22.63
2023-12-12T21:13:27.461Z,21.42
2023-12-12T21:15:54.531Z,24.77
2023-12-12T21:18:23.570Z,23.42
2023-12-12T21:20:52.290Z,22.27
2023-12-12T21:23:18.985Z,23.63
2023-12-12T21:25:45.846Z,24.38
2023-12-12T21:28:12.696Z,23.65
2023-12-12T21:30:39.389Z,20.73
2023-12-12T21:33:06.280Z,22.75
2023-12-12T21:35:32.915Z,22.70
2023-12-12T21:37:59.578Z,21.88
2023-12-12T21:40:26.303Z,21.90
2023-12-12T21:42:52.919Z,20.77
2023-12-12T21:45:20.524Z,22.58
2023-12-12T21:47:47.617Z,22.58
2023-12-12T21:50:14.426Z,24.30
2023-12-12T21:52:41.132Z,21.48
2023-12-12T21:55:09.246Z,22.95
2023-12-12T21:57:36.053Z,22.98
2023-12-12T22:00:05.603Z,26.35
2023-12-12T22:02:38.429Z,25.60
2023-12-12T22:05:06.237Z,24.27
2023-12-12T22:07:33.250Z,21.10
2023-12-12T22:10:00.276Z,25.20
2023-12-12T22:12:26.893Z,22.27
2023-12-12T22:14:53.522Z,21.55
2023-12-12T22:17:20.120Z,22.42
2023-12-12T22:19:58.227Z,19.98
2023-12-12T22:22:33.077Z,23.25
2023-12-12T22:25:00.148Z,21.02
2023-12-12T22:27:27.095Z,21.95
2023-12-12T22:29:53.952Z,21.38
2023-12-12T22:32:20.577Z,21.92
2023-12-12T22:34:47.255Z,23.10
2023-12-12T22:37:13.994Z,20.13
2023-12-12T22:39:40.801Z,22.63
2023-12-12T22:42:07.566Z,19.40
2023-12-12T22:44:34.851Z,21.25
2023-12-12T22:47:01.789Z,22.50
2023-12-12T22:49:28.457Z,25.70
2023-12-12T22:51:55.141Z,22.00
2023-12-12T22:54:21.732Z,23.23
2023-12-12T22:56:48.288Z,27.35
2023-12-12T22:59:14.926Z,22.30
2023-12-12T23:01:43.860Z,22.83
2023-12-12T23:04:10.715Z,27.05
2023-12-12T23:06:37.421Z,31.67
2023-12-12T23:09:06.774Z,30.38
2023-12-12T23:11:34.559Z,28.42
2023-12-12T23:14:01.282Z,32.35
2023-12-12T23:16:27.954Z,26.73
2023-12-12T23:18:54.652Z,26.30
2023-12-12T23:21:21.823Z,32.83
2023-12-12T23:23:48.445Z,28.80
2023-12-12T23:26:16.800Z,30.88
2023-12-12T23:28:43.534Z,25.33
2023-12-12T23:31:10.179Z,27.63
2023-12-12T23:33:38.955Z,28.65
2023-12-12T23:36:06.217Z,27.30
2023-12-12T23:38:32.913Z,27.33
2023-12-12T23:41:00.472Z,23.98
2023-12-12T23:43:27.370Z,28.92
2023-12-12T23:45:54.056Z,25.45
2023-12-12T23:48:20.694Z,24.67
2023-12-12T23:50:47.384Z,26.13
2023-12-12T23:53:13.960Z,25.77
2023-12-12T23:55:40.710Z,31.38
2023-12-12T23:58:07.569Z,25.88
